createdAt,value
2022-08-25T17:02:39.699Z,100403.66
2022-08-25T17:06:51.842Z,100402.88
2022-08-25T17:12:41.183Z,100394.19
2022-08-25T17:16:55.650Z,100379.63
2022-08-25T17:21:24.550Z,100404.69
2022-08-25T17:25:29.806Z,100405.13
2022-08-25T17:29:31.142Z,100371.47
2022-08-25T17:33:35.924Z,100417.56
2022-08-25T17:37:40.025Z,100363.06
2022-08-25T17:42:26.190Z,100399.31
2022-08-25T17:51:17.119Z,100391.03
2022-08-25T17:55:26.996Z,100432.66
2022-08-25T17:59:32.394Z,100438.94
2022-08-25T18:03:34.015Z,100437.34
2022-08-25T18:07:37.555Z,100438.53
2022-08-25T18:11:55.933Z,100443.06
2022-08-25T18:15:59.335Z,100439.97
2022-08-25T18:20:01.099Z,100448.47
2022-08-25T18:24:03.497Z,100411.09
2022-08-25T18:28:15.773Z,100434.19
2022-08-25T18:32:40.465Z,100446.41
2022-08-25T18:36:47.084Z,100445.38
2022-08-25T18:40:48.044Z,100458.72
2022-08-25T18:44:53.551Z,100440.25
2022-08-25T18:49:04.589Z,100457.97
2022-08-25T18:53:07.762Z,100450.78
2022-08-25T18:57:12.311Z,100426.56
2022-08-25T19:01:19.836Z,100445.19
2022-08-25T19:05:32.104Z,100476.16
2022-08-25T19:09:32.814Z,100469.91
2022-08-25T19:14:12.378Z,100473.25
2022-08-25T19:18:19.320Z,100472.47
2022-08-25T19:22:40.744Z,100441.63
2022-08-25T19:26:43.674Z,100471.41
2022-08-25T19:30:50.579Z,100465.69
2022-08-25T19:34:58.801Z,100474.78
2022-08-25T19:39:01.379Z,100473.66
2022-08-25T19:43:01.091Z,100465.69
2022-08-25T19:47:36.458Z,100465.38
2022-08-25T19:51:56.297Z,100436.91
2022-08-25T19:56:22.570Z,100454.47
2022-08-25T20:00:29.084Z,100469.25
2022-08-25T20:04:29.489Z,100477.47
2022-08-25T20:08:32.217Z,100478.22
2022-08-25T20:12:38.608Z,100475.22
2022-08-25T20:16:42.457Z,100466.16
2022-08-25T20:20:42.460Z,100477.19
2022-08-25T20:24:55.751Z,100459.00
2022-08-25T20:28:57.015Z,100491.75
2022-08-25T20:33:23.009Z,100472.06
2022-08-25T20:37:27.921Z,100508.28
2022-08-25T20:41:30.443Z,100510.06
2022-08-25T20:45:31.213Z,100514.06
2022-08-25T20:49:43.872Z,100500.34
2022-08-25T20:53:55.252Z,100510.19
2022-08-25T20:58:05.933Z,100492.53
2022-08-25T21:02:08.097Z,100497.53
2022-08-25T21:06:14.454Z,100514.22
2022-08-25T21:10:32.422Z,100476.53
2022-08-25T21:14:49.974Z,100464.19
2022-08-25T21:19:10.987Z,100498.75
2022-08-25T21:23:13.440Z,100503.06
2022-08-25T21:27:17.532Z,100480.47
2022-08-25T21:31:23.331Z,100479.88
2022-08-25T21:35:33.531Z,100469.56
2022-08-25T21:39:52.236Z,100489.34
2022-08-25T21:43:52.961Z,100473.63
2022-08-25T21:47:57.990Z,100494.63
2022-08-25T21:52:01.025Z,100487.88
2022-08-25T21:56:06.036Z,100464.41
2022-08-25T22:00:08.846Z,100487.41
2022-08-25T22:04:19.701Z,100469.19
2022-08-25T22:08:20.375Z,100480.44
2022-08-25T22:12:20.826Z,100496.06
2022-08-25T22:16:21.851Z,100485.78
2022-08-25T22:20:25.172Z,100460.47
2022-08-25T22:24:28.448Z,100478.03
2022-08-25T22:28:29.421Z,100487.84
2022-08-25T22:32:30.273Z,100462.00
2022-08-25T22:36:35.985Z,100485.28
2022-08-25T22:40:38.467Z,100483.41
2022-08-25T22:44:42.021Z,100477.81
2022-08-25T22:48:41.840Z,100477.41
2022-08-25T22:52:48.833Z,100480.78
2022-08-25T22:56:49.602Z,100478.81
2022-08-25T23:00:50.249Z,100470.38
2022-08-25T23:04:51.883Z,100470.66
2022-08-25T23:08:59.341Z,100479.28
2022-08-25T23:13:31.021Z,100440.38
2022-08-25T23:17:34.497Z,100460.66
2022-08-25T23:21:54.424Z,100465.75
2022-08-25T23:26:01.331Z,100444.34
2022-08-25T23:30:02.762Z,100445.88
2022-08-25T23:34:05.250Z,100461.56
2022-08-25T23:38:05.978Z,100449.53
2022-08-25T23:42:09.885Z,100469.63
2022-08-25T23:46:10.533Z,100463.47
2022-08-25T23:50:11.564Z,100461.56
2022-08-25T23:54:14.399Z,100451.50
2022-08-25T23:58:16.832Z,100458.56
